Time;durP1;ratioP1;P1;durP2;ratioP2;P2;SDS_P1;SDS_P2;PMS_P1;PMS_P2;Temp;Humidity;BMP_temperature;BMP_pressure;BME280_temperature;BME280_humidity;BME280_pressure;Samples;Min_cycle;Max_cycle;Signal;HPM_P1;HPM_P2
2023/08/16 00:01:58;;;;;;;9.27;5.65;;;20.90;99.90;;;;;;5047171;28;20101;-63
2023/08/16 00:04:30;;;;;;;10.40;5.13;;;20.90;99.90;;;;;;5064218;28;20103;-64
2023/08/16 00:07:02;;;;;;;10.52;5.15;;;20.80;99.90;;;;;;5068481;28;20430;-63
2023/08/16 00:09:29;;;;;;;10.88;5.65;;;20.70;99.90;;;;;;5070199;28;20094;-63
2023/08/16 00:11:56;;;;;;;7.38;5.10;;;20.70;99.90;;;;;;5054602;28;20041;-63
2023/08/16 00:14:28;;;;;;;8.85;5.32;;;20.60;99.90;;;;;;5069656;28;20052;-64
2023/08/16 00:17:00;;;;;;;6.85;5.20;;;20.60;99.90;;;;;;5053877;28;20526;-63
2023/08/16 00:19:32;;;;;;;6.32;5.32;;;20.70;99.90;;;;;;5056765;28;20052;-64
2023/08/16 00:21:59;;;;;;;5.88;4.88;;;20.70;99.90;;;;;;5073562;28;20041;-63
2023/08/16 00:24:31;;;;;;;7.63;5.22;;;20.70;99.90;;;;;;5071003;28;20037;-64
2023/08/16 00:27:03;;;;;;;8.43;5.53;;;20.60;99.90;;;;;;5066448;28;20052;-63
2023/08/16 00:29:35;;;;;;;6.97;5.20;;;20.60;99.90;;;;;;5061998;28;20044;-64
2023/08/16 00:32:07;;;;;;;6.40;5.55;;;20.60;99.90;;;;;;5043291;28;20044;-63
2023/08/16 00:34:34;;;;;;;6.18;5.10;;;20.60;99.90;;;;;;5064764;28;20102;-63
2023/08/16 00:37:06;;;;;;;9.50;5.50;;;20.60;99.90;;;;;;5069451;28;20112;-64
2023/08/16 00:39:33;;;;;;;6.20;4.80;;;20.50;99.90;;;;;;5044035;28;20047;-64
2023/08/16 00:42:00;;;;;;;6.28;5.53;;;20.50;99.90;;;;;;5052441;28;20606;-64
2023/08/16 00:44:33;;;;;;;6.68;5.55;;;20.50;99.90;;;;;;5055547;28;20041;-64
2023/08/16 00:47:05;;;;;;;8.55;5.50;;;20.50;99.90;;;;;;5073735;28;20535;-63
2023/08/16 00:49:39;;;;;;;7.82;5.40;;;20.40;99.90;;;;;;5049421;28;20047;-63
2023/08/16 00:52:11;;;;;;;7.07;5.80;;;20.40;99.90;;;;;;5030184;28;20041;-64
2023/08/16 00:54:43;;;;;;;9.27;5.35;;;20.40;99.90;;;;;;5053232;28;20037;-64
2023/08/16 00:57:15;;;;;;;8.32;5.68;;;20.40;99.90;;;;;;5056196;28;20561;-63
2023/08/16 00:59:42;;;;;;;8.90;6.18;;;20.40;99.90;;;;;;5056842;28;20064;-64
2023/08/16 01:02:10;;;;;;;7.47;5.85;;;20.30;99.90;;;;;;5050095;28;20045;-64
2023/08/16 01:04:43;;;;;;;7.43;6.00;;;20.30;99.90;;;;;;5052465;28;20462;-63
2023/08/16 01:07:15;;;;;;;6.50;5.90;;;20.20;99.90;;;;;;5070653;28;20041;-63
2023/08/16 01:09:47;;;;;;;11.63;6.23;;;20.20;99.90;;;;;;5067366;28;20060;-63
2023/08/16 01:12:25;;;;;;;9.75;5.95;;;20.20;99.90;;;;;;5051589;28;20036;-63
2023/08/16 01:14:59;;;;;;;10.57;6.10;;;20.10;99.90;;;;;;5053602;28;20094;-63
2023/08/16 01:17:32;;;;;;;8.02;5.85;;;20.10;99.90;;;;;;5066422;28;20604;-64
2023/08/16 01:20:07;;;;;;;6.10;5.30;;;20.00;99.90;;;;;;5053854;28;20543;-63
2023/08/16 01:22:57;;;;;;;10.75;6.47;;;20.00;99.90;;;;;;5069726;28;20063;-63
2023/08/16 01:25:37;;;;;;;8.30;5.65;;;19.90;99.90;;;;;;5051084;28;20044;-64
2023/08/16 01:28:10;;;;;;;7.22;5.75;;;20.00;99.90;;;;;;5068930;28;20072;-63
2023/08/16 01:30:42;;;;;;;6.45;5.78;;;20.00;99.90;;;;;;5071008;28;20494;-63
2023/08/16 01:33:14;;;;;;;6.78;5.88;;;20.00;99.90;;;;;;5054210;28;20051;-63
2023/08/16 01:35:46;;;;;;;7.30;6.30;;;20.10;99.90;;;;;;5072716;28;20116;-63
2023/08/16 01:38:17;;;;;;;7.05;6.35;;;20.10;99.90;;;;;;5065858;28;20064;-63
2023/08/16 01:40:53;;;;;;;7.55;6.03;;;20.10;99.90;;;;;;5058918;28;20045;-63
2023/08/16 01:43:21;;;;;;;7.90;7.07;;;20.10;99.90;;;;;;5053448;28;20063;-63
2023/08/16 01:45:51;;;;;;;7.63;6.43;;;20.00;99.90;;;;;;5068347;28;20119;-63
2023/08/16 01:48:25;;;;;;;11.30;8.65;;;20.00;99.90;;;;;;5053678;28;20045;-63
2023/08/16 01:50:57;;;;;;;10.40;8.35;;;19.90;99.90;;;;;;5052266;28;20048;-67
2023/08/16 01:53:28;;;;;;;9.23;8.07;;;19.90;99.90;;;;;;5048526;28;20051;-63
2023/08/16 01:56:01;;;;;;;12.63;7.07;;;19.90;99.90;;;;;;5039381;28;20040;-63
2023/08/16 01:58:33;;;;;;;8.45;7.60;;;19.80;99.90;;;;;;5054074;28;20033;-63
2023/08/16 02:01:05;;;;;;;8.63;7.30;;;19.80;99.90;;;;;;5052713;28;20040;-63
2023/08/16 02:03:37;;;;;;;8.63;7.05;;;19.80;99.90;;;;;;5066852;28;20543;-63
2023/08/16 02:06:09;;;;;;;8.75;7.15;;;19.80;99.90;;;;;;5051282;28;20444;-63
2023/08/16 02:08:41;;;;;;;7.80;6.57;;;19.80;99.90;;;;;;5043641;28;20044;-63
2023/08/16 02:11:13;;;;;;;9.45;7.75;;;19.80;99.90;;;;;;5051523;28;20041;-63
2023/08/16 02:13:40;;;;;;;7.75;6.70;;;19.80;99.90;;;;;;5055581;28;20127;-63
2023/08/16 02:16:12;;;;;;;8.52;7.47;;;19.70;99.90;;;;;;5051281;28;20048;-63
2023/08/16 02:18:44;;;;;;;7.85;6.80;;;19.60;99.90;;;;;;5054441;28;20043;-63
2023/08/16 02:21:16;;;;;;;9.77;6.75;;;19.60;99.90;;;;;;5053055;28;20132;-64
2023/08/16 02:23:48;;;;;;;6.97;6.28;;;19.60;99.90;;;;;;5037897;28;20051;-63
2023/08/16 02:26:22;;;;;;;8.07;6.85;;;19.50;99.90;;;;;;5050781;28;20037;-63
2023/08/16 02:28:53;;;;;;;8.63;6.80;;;19.40;99.90;;;;;;5050810;28;20054;-63
2023/08/16 02:31:25;;;;;;;9.25;6.13;;;19.30;99.90;;;;;;5069323;28;20555;-63
2023/08/16 02:33:57;;;;;;;6.60;5.63;;;19.30;99.90;;;;;;5046665;28;20052;-63
2023/08/16 02:36:24;;;;;;;8.00;6.10;;;19.30;99.90;;;;;;5052615;28;20135;-63
2023/08/16 02:38:56;;;;;;;8.35;5.53;;;19.30;99.90;;;;;;5054167;28;20045;-63
2023/08/16 02:41:29;;;;;;;8.45;6.68;;;19.30;99.90;;;;;;5070381;28;20044;-63
2023/08/16 02:44:01;;;;;;;6.93;6.00;;;19.30;99.90;;;;;;5049375;28;20053;-64
2023/08/16 02:46:27;;;;;;;8.57;5.68;;;19.20;99.90;;;;;;5066440;28;20135;-64
2023/08/16 02:48:59;;;;;;;7.95;6.00;;;19.20;99.90;;;;;;5070304;28;20453;-63
2023/08/16 02:51:31;;;;;;;9.05;5.95;;;19.20;99.90;;;;;;5054088;28;20817;-63
2023/08/16 02:53:58;;;;;;;6.65;5.65;;;19.20;99.90;;;;;;5064120;28;20033;-63
2023/08/16 02:56:29;;;;;;;10.00;6.30;;;19.10;99.90;;;;;;5066530;28;20048;-64
2023/08/16 02:59:01;;;;;;;7.85;5.75;;;19.20;99.90;;;;;;5051072;28;20048;-64
2023/08/16 03:01:34;;;;;;;12.50;5.60;;;19.10;99.90;;;;;;5049858;28;20045;-63
2023/08/16 03:04:06;;;;;;;10.02;6.15;;;19.10;99.90;;;;;;5037769;28;20058;-63
2023/08/16 03:06:38;;;;;;;9.02;5.60;;;19.10;99.90;;;;;;5051394;28;20431;-63
2023/08/16 03:09:10;;;;;;;8.20;5.95;;;19.00;99.90;;;;;;5060051;28;20083;-63
2023/08/16 03:11:42;;;;;;;7.28;5.68;;;19.00;99.90;;;;;;5070946;28;20045;-63
2023/08/16 03:14:09;;;;;;;6.90;6.05;;;19.00;99.90;;;;;;5041333;28;20573;-63
2023/08/16 03:16:41;;;;;;;7.97;5.53;;;19.00;99.90;;;;;;5053414;28;20111;-63
2023/08/16 03:19:13;;;;;;;8.50;6.60;;;19.00;99.90;;;;;;5046946;28;20049;-64
2023/08/16 03:21:45;;;;;;;10.75;6.18;;;19.00;99.90;;;;;;5060566;28;20072;-65
2023/08/16 03:24:17;;;;;;;7.93;5.63;;;18.90;99.90;;;;;;5066561;28;20044;-65
2023/08/16 03:26:43;;;;;;;8.27;6.85;;;19.00;99.90;;;;;;5052841;28;20127;-65
2023/08/16 03:29:11;;;;;;;8.43;5.72;;;19.00;99.90;;;;;;5049816;28;20103;-63
2023/08/16 03:31:43;;;;;;;7.88;5.65;;;19.20;99.90;;;;;;5052430;28;20068;-64
2023/08/16 03:34:16;;;;;;;10.55;6.50;;;19.40;99.90;;;;;;5049035;28;20524;-63
2023/08/16 03:36:48;;;;;;;6.18;5.57;;;19.50;99.90;;;;;;5037514;28;20505;-64
2023/08/16 03:39:20;;;;;;;10.07;6.57;;;19.50;99.90;;;;;;5044755;28;20033;-64
2023/08/16 03:41:52;;;;;;;7.38;6.18;;;19.50;99.90;;;;;;5053485;28;20064;-64
2023/08/16 03:44:19;;;;;;;10.57;6.50;;;19.40;99.90;;;;;;5035662;28;20044;-63
2023/08/16 03:46:52;;;;;;;7.57;6.22;;;19.20;99.90;;;;;;5046431;28;20070;-63
2023/08/16 03:49:24;;;;;;;8.77;5.53;;;19.10;99.90;;;;;;5052902;28;20047;-64
2023/08/16 03:51:51;;;;;;;8.20;5.72;;;19.00;99.90;;;;;;5059589;28;20120;-63
2023/08/16 03:54:23;;;;;;;6.30;5.68;;;19.00;99.90;;;;;;5069598;28;20036;-63
2023/08/16 03:56:56;;;;;;;7.78;5.65;;;19.00;99.90;;;;;;5062708;28;20432;-63
2023/08/16 03:59:28;;;;;;;6.53;5.57;;;18.90;99.90;;;;;;5046106;28;20261;-64
2023/08/16 04:02:00;;;;;;;6.82;5.97;;;18.90;99.90;;;;;;5052930;28;20052;-64
2023/08/16 04:04:32;;;;;;;8.88;5.75;;;18.90;99.90;;;;;;5051279;28;20411;-63
2023/08/16 04:06:59;;;;;;;6.15;5.45;;;18.90;99.90;;;;;;5047543;28;20069;-63
2023/08/16 04:09:31;;;;;;;6.57;5.38;;;18.90;99.90;;;;;;5064839;28;20041;-63
2023/08/16 04:12:03;;;;;;;9.02;6.65;;;18.80;99.90;;;;;;5067962;28;20041;-63
2023/08/16 04:14:35;;;;;;;7.03;6.00;;;18.70;99.90;;;;;;5053538;28;20047;-63
2023/08/16 04:17:06;;;;;;;6.95;5.50;;;18.70;99.90;;;;;;5068556;28;20067;-64
2023/08/16 04:19:38;;;;;;;7.70;6.00;;;18.70;99.90;;;;;;5066512;28;20041;-63
2023/08/16 04:22:10;;;;;;;7.93;6.20;;;18.70;99.90;;;;;;5052162;28;20044;-63
2023/08/16 04:24:42;;;;;;;8.80;6.68;;;18.70;99.90;;;;;;5048531;28;20427;-64
2023/08/16 04:27:14;;;;;;;7.88;6.90;;;18.70;99.90;;;;;;5071691;28;20427;-64
2023/08/16 04:29:46;;;;;;;7.22;6.25;;;18.70;99.90;;;;;;5051631;28;20140;-63
2023/08/16 04:32:17;;;;;;;8.68;6.72;;;18.70;99.90;;;;;;5051898;28;20139;-64
2023/08/16 04:34:49;;;;;;;9.40;7.30;;;18.60;99.90;;;;;;5071488;28;20039;-64
2023/08/16 04:37:22;;;;;;;10.77;7.90;;;18.50;99.90;;;;;;5046408;28;20036;-63
2023/08/16 04:39:53;;;;;;;16.05;8.48;;;18.50;99.90;;;;;;5058304;28;20534;-63
2023/08/16 04:42:26;;;;;;;9.55;8.02;;;18.50;99.90;;;;;;5054553;28;20048;-63
2023/08/16 04:44:57;;;;;;;9.13;7.50;;;18.60;99.90;;;;;;5055314;28;20072;-63
2023/08/16 04:47:24;;;;;;;9.10;7.07;;;18.50;99.90;;;;;;5060281;28;20112;-63
2023/08/16 04:49:58;;;;;;;12.32;8.00;;;18.50;99.90;;;;;;5057883;28;20043;-63
2023/08/16 04:52:30;;;;;;;9.43;7.50;;;18.50;99.90;;;;;;5074268;28;20041;-63
2023/08/16 04:55:08;;;;;;;8.27;7.13;;;18.50;99.90;;;;;;5049269;28;20416;-63
2023/08/16 04:57:40;;;;;;;11.50;7.60;;;18.60;99.90;;;;;;5071980;28;20067;-63
2023/08/16 05:00:10;;;;;;;11.30;7.55;;;18.60;99.90;;;;;;5057099;28;20473;-64
2023/08/16 05:02:59;;;;;;;13.25;10.35;;;18.60;99.90;;;;;;5056317;28;20064;-64
2023/08/16 05:05:33;;;;;;;18.00;10.98;;;18.60;99.90;;;;;;5074563;28;20044;-63
2023/08/16 05:08:05;;;;;;;12.88;10.52;;;18.60;99.90;;;;;;5072726;28;20040;-64
2023/08/16 05:10:38;;;;;;;12.52;10.10;;;18.60;99.90;;;;;;5074225;28;20040;-63
2023/08/16 05:13:10;;;;;;;14.57;10.48;;;18.60;99.90;;;;;;5043888;28;20098;-63
2023/08/16 05:15:42;;;;;;;13.05;9.70;;;18.60;99.90;;;;;;5074241;28;20119;-63
2023/08/16 05:18:13;;;;;;;10.95;8.88;;;18.60;99.90;;;;;;5052959;28;20135;-64
2023/08/16 05:20:41;;;;;;;12.55;7.60;;;18.60;99.90;;;;;;5056240;28;20044;-63
2023/08/16 05:23:13;;;;;;;11.30;7.57;;;18.60;99.90;;;;;;5060255;28;20040;-63
2023/08/16 05:25:45;;;;;;;10.55;8.77;;;18.60;99.90;;;;;;5073299;28;20036;-64
2023/08/16 05:28:17;;;;;;;11.50;7.88;;;18.70;99.90;;;;;;5071503;28;20194;-63
2023/08/16 05:30:49;;;;;;;10.20;8.05;;;18.70;99.90;;;;;;5070835;28;20037;-63
2023/08/16 05:33:21;;;;;;;12.45;9.88;;;18.70;99.90;;;;;;5069881;28;20045;-63
2023/08/16 05:35:53;;;;;;;18.70;11.23;;;18.80;99.90;;;;;;5073205;28;20048;-63
2023/08/16 05:38:25;;;;;;;29.75;12.93;;;18.80;99.90;;;;;;5073953;28;20051;-63
2023/08/16 05:40:58;;;;;;;13.85;11.02;;;18.80;99.90;;;;;;5074583;28;20119;-64
2023/08/16 05:43:31;;;;;;;14.95;10.90;;;18.80;99.90;;;;;;5066385;28;20052;-63
2023/08/16 05:46:03;;;;;;;11.77;9.55;;;18.80;99.90;;;;;;5071680;28;20033;-63
2023/08/16 05:48:34;;;;;;;12.93;9.93;;;18.90;99.90;;;;;;5073724;28;20037;-63
2023/08/16 05:51:06;;;;;;;12.27;9.88;;;18.90;99.90;;;;;;5067577;28;20047;-64
2023/08/16 05:53:38;;;;;;;16.10;10.15;;;19.00;99.90;;;;;;5057307;28;20043;-63
2023/08/16 05:56:10;;;;;;;13.65;10.40;;;19.00;99.90;;;;;;5071079;28;20056;-63
2023/08/16 05:58:42;;;;;;;10.48;9.40;;;19.10;99.90;;;;;;5057342;28;20135;-63
2023/08/16 06:01:14;;;;;;;10.15;9.20;;;19.00;99.90;;;;;;5072887;28;20044;-64
2023/08/16 06:03:46;;;;;;;9.63;8.73;;;19.00;99.90;;;;;;5074079;28;20052;-63
2023/08/16 06:06:18;;;;;;;8.95;8.13;;;19.00;99.90;;;;;;5070862;28;20071;-64
2023/08/16 06:08:45;;;;;;;8.32;7.53;;;19.00;99.90;;;;;;5069715;28;20557;-63
2023/08/16 06:11:17;;;;;;;9.23;8.30;;;19.00;99.90;;;;;;5069098;28;20515;-64
2023/08/16 06:13:48;;;;;;;7.82;7.18;;;19.10;99.90;;;;;;5057048;28;20045;-63
2023/08/16 06:16:20;;;;;;;8.25;7.47;;;19.10;99.90;;;;;;5067955;28;20028;-63
2023/08/16 06:18:53;;;;;;;10.30;8.93;;;19.10;99.90;;;;;;5070441;28;20040;-63
2023/08/16 06:21:25;;;;;;;9.90;9.00;;;19.10;99.90;;;;;;5068579;28;20579;-64
2023/08/16 06:23:57;;;;;;;9.38;8.35;;;19.20;99.90;;;;;;5073278;28;20330;-63
2023/08/16 06:26:29;;;;;;;10.07;9.17;;;19.20;99.90;;;;;;5072376;28;20041;-64
2023/08/16 06:29:00;;;;;;;9.63;8.38;;;19.30;99.90;;;;;;5073603;28;20389;-63
2023/08/16 06:31:33;;;;;;;10.68;9.68;;;19.40;99.90;;;;;;5067236;28;20453;-64
2023/08/16 06:34:06;;;;;;;10.77;8.70;;;19.40;99.90;;;;;;5051837;28;20039;-63
2023/08/16 06:36:33;;;;;;;9.52;8.63;;;19.50;99.90;;;;;;5053125;28;20471;-63
2023/08/16 06:38:59;;;;;;;9.60;8.60;;;19.60;99.90;;;;;;5068453;28;20104;-63
2023/08/16 06:41:31;;;;;;;9.57;8.77;;;19.60;99.90;;;;;;5067946;28;20053;-63
2023/08/16 06:44:04;;;;;;;10.43;9.52;;;19.60;99.90;;;;;;5055614;28;20053;-63
2023/08/16 06:46:36;;;;;;;13.32;10.38;;;19.70;99.90;;;;;;5055413;28;20535;-64
2023/08/16 06:49:03;;;;;;;10.25;9.35;;;19.70;99.90;;;;;;5072640;28;20071;-63
2023/08/16 06:51:35;;;;;;;11.20;9.43;;;19.80;99.90;;;;;;5068765;28;20112;-64
2023/08/16 06:54:07;;;;;;;11.30;10.18;;;19.90;99.90;;;;;;5054282;28;20044;-63
2023/08/16 06:56:39;;;;;;;10.68;9.68;;;19.90;99.90;;;;;;5053466;28;20041;-64
2023/08/16 06:59:11;;;;;;;12.27;11.02;;;20.00;99.90;;;;;;5071498;28;20051;-63
2023/08/16 07:01:43;;;;;;;11.27;10.15;;;20.10;99.90;;;;;;5070813;28;20033;-63
2023/08/16 07:04:14;;;;;;;12.82;10.85;;;20.20;99.90;;;;;;5066637;28;20052;-63
2023/08/16 07:06:46;;;;;;;13.38;10.52;;;20.30;99.90;;;;;;5065608;28;20124;-65
2023/08/16 07:09:19;;;;;;;13.68;10.52;;;20.30;99.90;;;;;;5048309;28;20056;-65
2023/08/16 07:11:51;;;;;;;10.15;9.15;;;20.40;99.90;;;;;;5065382;28;20040;-64
2023/08/16 07:14:22;;;;;;;11.00;10.00;;;20.50;99.90;;;;;;5064172;28;20040;-66
2023/08/16 07:16:55;;;;;;;11.93;10.65;;;20.60;99.90;;;;;;5063731;28;20043;-63
2023/08/16 07:19:27;;;;;;;11.50;10.40;;;20.70;99.90;;;;;;5069819;28;20400;-63
2023/08/16 07:21:59;;;;;;;12.52;9.65;;;20.90;99.90;;;;;;5070982;28;20051;-63
2023/08/16 07:24:30;;;;;;;11.20;10.07;;;21.00;99.90;;;;;;5051672;28;20044;-63
2023/08/16 07:27:02;;;;;;;12.05;9.48;;;21.10;99.90;;;;;;5051981;28;20412;-63
2023/08/16 07:29:34;;;;;;;10.88;8.50;;;21.30;99.90;;;;;;5066968;28;20504;-63
2023/08/16 07:32:06;;;;;;;13.52;9.02;;;21.40;99.90;;;;;;5068041;28;20044;-63
2023/08/16 07:34:38;;;;;;;11.35;8.52;;;21.50;99.90;;;;;;5064561;28;20050;-63
2023/08/16 07:37:10;;;;;;;9.43;7.45;;;21.70;99.90;;;;;;5050828;28;20067;-64
2023/08/16 07:39:42;;;;;;;8.57;6.70;;;21.80;99.90;;;;;;5068701;28;20048;-65
2023/08/16 07:42:17;;;;;;;7.80;6.90;;;22.00;99.90;;;;;;5048933;28;20053;-63
2023/08/16 07:44:49;;;;;;;10.82;6.60;;;22.10;99.90;;;;;;5065694;28;20047;-63
2023/08/16 07:47:21;;;;;;;9.05;7.22;;;22.30;99.90;;;;;;5068685;28;20128;-64
2023/08/16 07:49:54;;;;;;;8.35;6.63;;;22.40;99.90;;;;;;5066976;28;20127;-63
2023/08/16 07:52:26;;;;;;;8.35;7.25;;;22.60;99.90;;;;;;5066136;28;20041;-63
2023/08/16 07:54:59;;;;;;;9.13;7.70;;;22.70;99.90;;;;;;5068266;28;20045;-63
2023/08/16 07:57:31;;;;;;;6.70;6.10;;;22.80;99.90;;;;;;5050521;28;20274;-64
2023/08/16 08:00:06;;;;;;;7.78;6.63;;;22.90;99.90;;;;;;5069082;28;20115;-63
2023/08/16 08:02:41;;;;;;;10.85;6.93;;;23.00;99.90;;;;;;5068695;28;20135;-63
2023/08/16 08:05:14;;;;;;;9.23;5.88;;;23.10;99.90;;;;;;5054418;28;20076;-63
2023/08/16 08:07:46;;;;;;;7.50;6.45;;;23.20;99.90;;;;;;5064410;28;20048;-63
2023/08/16 08:10:18;;;;;;;10.60;6.15;;;23.30;99.90;;;;;;5072568;28;20124;-64
2023/08/16 08:12:50;;;;;;;7.40;5.70;;;23.40;99.90;;;;;;5069686;28;20398;-63
2023/08/16 08:15:22;;;;;;;7.32;6.20;;;23.50;99.90;;;;;;5069812;28;20041;-64
2023/08/16 08:17:48;;;;;;;8.27;6.20;;;23.60;99.90;;;;;;5069237;28;20033;-64
2023/08/16 08:20:20;;;;;;;8.55;6.32;;;23.70;99.90;;;;;;5054579;28;20066;-64
2023/08/16 08:22:52;;;;;;;6.97;6.13;;;23.80;99.90;;;;;;5053952;28;20045;-63
2023/08/16 08:25:24;;;;;;;12.63;5.97;;;23.90;99.90;;;;;;5070257;28;20123;-65
2023/08/16 08:27:58;;;;;;;6.55;5.00;;;24.00;99.90;;;;;;5068109;28;20275;-64
2023/08/16 08:30:30;;;;;;;6.30;5.43;;;24.10;99.90;;;;;;5070798;28;20044;-63
2023/08/16 08:33:02;;;;;;;5.20;4.80;;;24.20;99.90;;;;;;5068328;28;20117;-63
2023/08/16 08:35:33;;;;;;;6.38;5.20;;;24.30;99.90;;;;;;5069764;28;20055;-64
2023/08/16 08:38:05;;;;;;;8.32;4.90;;;24.40;99.90;;;;;;5049405;28;20390;-63
2023/08/16 08:40:38;;;;;;;5.07;4.57;;;24.40;99.90;;;;;;5053826;28;20520;-63
2023/08/16 08:43:12;;;;;;;4.90;4.40;;;24.50;99.90;;;;;;5071087;28;20052;-64
2023/08/16 08:45:46;;;;;;;6.35;5.28;;;24.70;99.90;;;;;;5067829;28;21630;-63
2023/08/16 08:48:18;;;;;;;7.90;5.32;;;24.80;99.90;;;;;;5069752;28;20043;-64
2023/08/16 08:50:51;;;;;;;;;;;25.00;99.90;;;;;;5071969;28;20411;-63
2023/08/16 08:53:25;;;;;;;5.43;4.88;;;25.10;99.90;;;;;;5072232;28;20419;-64
2023/08/16 08:56:06;;;;;;;7.50;4.68;;;25.20;99.90;;;;;;5049939;28;20413;-63
2023/08/16 08:58:40;;;;;;;8.50;5.38;;;25.30;99.90;;;;;;5070863;28;20047;-63
2023/08/16 09:01:13;;;;;;;5.20;4.70;;;25.30;99.90;;;;;;5064767;28;20535;-63
2023/08/16 09:03:46;;;;;;;6.30;5.07;;;25.40;99.90;;;;;;5069489;28;20045;-63
2023/08/16 09:06:19;;;;;;;7.13;4.50;;;25.60;99.90;;;;;;5067011;28;20136;-63
2023/08/16 09:08:51;;;;;;;6.60;4.43;;;25.70;99.90;;;;;;5071467;28;20059;-63
2023/08/16 09:11:24;;;;;;;5.75;4.10;;;25.80;99.90;;;;;;5068933;28;20045;-63
2023/08/16 09:14:01;;;;;;;5.63;5.13;;;25.90;99.90;;;;;;5068245;28;20504;-63
2023/08/16 09:16:33;;;;;;;6.53;4.75;;;25.90;99.90;;;;;;5067899;28;20041;-63
2023/08/16 09:19:15;;;;;;;6.07;4.75;;;26.00;99.90;;;;;;5052932;28;20420;-63
2023/08/16 09:21:51;;;;;;;5.80;5.28;;;26.10;99.90;;;;;;5050050;28;20410;-63
2023/08/16 09:24:23;;;;;;;7.50;4.82;;;26.20;99.90;;;;;;5066702;28;20122;-63
2023/08/16 09:27:00;;;;;;;8.00;4.22;;;26.30;99.90;;;;;;5067029;28;20044;-63
2023/08/16 09:29:32;;;;;;;5.03;4.55;;;26.40;99.90;;;;;;5067845;28;20071;-63
2023/08/16 09:32:09;;;;;;;5.23;3.90;;;26.50;99.90;;;;;;5053712;28;20051;-63
2023/08/16 09:34:40;;;;;;;5.25;4.75;;;26.60;99.90;;;;;;5067306;28;20119;-63
2023/08/16 09:37:07;;;;;;;7.22;4.28;;;26.70;99.90;;;;;;5069894;28;20043;-62
2023/08/16 09:39:39;;;;;;;5.57;4.22;;;26.70;99.90;;;;;;5070172;28;20127;-63
2023/08/16 09:42:11;;;;;;;7.85;5.20;;;26.80;99.90;;;;;;5041626;28;20407;-62
2023/08/16 09:44:47;;;;;;;5.78;4.13;;;26.90;99.90;;;;;;5048604;28;20048;-62
2023/08/16 09:47:19;;;;;;;7.60;4.57;;;27.00;99.90;;;;;;5053402;28;20462;-63
2023/08/16 09:49:51;;;;;;;6.07;4.53;;;27.10;99.90;;;;;;5051155;28;20040;-62
2023/08/16 09:52:24;;;;;;;4.57;3.42;;;27.20;99.90;;;;;;5070644;28;20041;-62
2023/08/16 09:54:57;;;;;;;4.38;3.55;;;27.40;99.90;;;;;;5051900;28;20044;-63
2023/08/16 09:57:29;;;;;;;3.90;2.88;;;27.50;99.90;;;;;;5068376;28;20037;-63
2023/08/16 10:00:05;;;;;;;3.58;3.20;;;27.60;99.90;;;;;;5067090;28;20044;-63
2023/08/16 10:02:40;;;;;;;4.10;3.30;;;27.80;99.90;;;;;;5069051;28;20037;-62
2023/08/16 10:05:12;;;;;;;3.88;3.55;;;27.90;99.90;;;;;;5069009;28;20063;-62
2023/08/16 10:07:40;;;;;;;4.35;3.20;;;27.90;99.90;;;;;;5069567;28;20127;-62
2023/08/16 10:10:13;;;;;;;2.88;2.67;;;28.00;99.90;;;;;;5048783;28;20530;-62
2023/08/16 10:12:47;;;;;;;4.40;3.10;;;28.00;99.90;;;;;;5064896;28;20397;-63
2023/08/16 10:15:19;;;;;;;4.18;3.10;;;28.10;99.90;;;;;;5064713;28;20052;-63
2023/08/16 10:17:53;;;;;;;3.43;3.10;;;28.20;99.90;;;;;;5067921;28;20051;-62
2023/08/16 10:20:27;;;;;;;5.35;4.10;;;28.20;99.90;;;;;;5065792;28;20061;-62
2023/08/16 10:23:01;;;;;;;4.20;3.25;;;28.20;99.90;;;;;;5065049;28;20045;-63
2023/08/16 10:25:38;;;;;;;4.53;2.60;;;28.40;99.90;;;;;;5068414;28;20048;-62
2023/08/16 10:28:08;;;;;;;7.30;2.70;;;28.50;99.90;;;;;;5068547;28;20044;-62
2023/08/16 10:30:45;;;;;;;4.32;2.72;;;28.50;99.90;;;;;;5067280;28;20044;-62
2023/08/16 10:33:25;;;;;;;5.40;3.10;;;28.60;99.90;;;;;;5067299;28;20031;-65
2023/08/16 10:35:57;;;;;;;2.65;2.45;;;28.70;99.90;;;;;;5065941;28;20040;-62
2023/08/16 10:38:41;;;;;;;4.13;2.77;;;28.80;99.90;;;;;;5065852;28;20040;-64
2023/08/16 10:41:15;;;;;;;2.75;2.53;;;28.80;99.90;;;;;;5066215;28;20044;-62
2023/08/16 10:43:51;;;;;;;3.78;2.67;;;28.90;99.90;;;;;;5064290;28;20044;-62
2023/08/16 10:46:31;;;;;;;2.70;2.50;;;28.90;99.90;;;;;;5063826;28;20139;-63
2023/08/16 10:49:08;;;;;;;2.90;2.60;;;29.00;99.90;;;;;;5066574;28;20072;-62
2023/08/16 10:51:45;;;;;;;4.88;2.70;;;29.10;99.90;;;;;;5065512;28;20068;-63
2023/08/16 10:54:17;;;;;;;2.70;2.10;;;29.20;99.90;;;;;;5070022;28;20067;-62
2023/08/16 10:56:48;;;;;;;3.35;2.45;;;29.30;99.90;;;;;;5068019;28;20037;-63
2023/08/16 10:59:16;;;;;;;2.55;2.35;;;29.40;99.90;;;;;;5065143;28;20097;-63
2023/08/16 11:01:48;;;;;;;3.90;2.78;;;29.40;99.90;;;;;;5050379;28;20032;-62
2023/08/16 11:04:20;;;;;;;3.03;2.58;;;29.50;99.90;;;;;;5051777;28;20128;-62
2023/08/16 11:06:52;;;;;;;2.33;2.13;;;29.60;99.90;;;;;;5064140;28;20059;-62
2023/08/16 11:09:27;;;;;;;2.53;2.20;;;29.70;99.90;;;;;;5049421;28;20045;-62
2023/08/16 11:12:06;;;;;;;2.92;2.22;;;29.70;99.90;;;;;;5049386;28;20409;-63
2023/08/16 11:14:38;;;;;;;3.28;2.50;;;29.80;99.90;;;;;;5068044;28;20032;-63
2023/08/16 11:17:05;;;;;;;3.60;2.45;;;29.90;99.90;;;;;;5052209;28;20028;-62
2023/08/16 11:19:35;;;;;;;2.60;2.40;;;30.00;99.90;;;;;;5070170;28;20028;-62
2023/08/16 11:22:11;;;;;;;5.25;2.33;;;30.00;99.90;;;;;;5067550;28;20401;-62
2023/08/16 11:24:45;;;;;;;3.00;2.53;;;30.10;99.90;;;;;;5069672;28;20043;-63
2023/08/16 11:27:24;;;;;;;2.80;2.50;;;30.20;99.90;;;;;;5069009;28;20045;-62
2023/08/16 11:29:54;;;;;;;3.30;2.38;;;30.20;99.90;;;;;;5063978;28;20398;-63
2023/08/16 11:32:36;;;;;;;3.17;2.63;;;30.30;99.90;;;;;;5066096;28;20058;-63
2023/08/16 11:35:10;;;;;;;2.90;2.60;;;30.40;99.90;;;;;;5051593;28;20041;-63
2023/08/16 11:37:42;;;;;;;3.33;1.92;;;30.50;99.90;;;;;;5066897;28;20044;-63
2023/08/16 11:40:13;;;;;;;2.23;2.03;;;30.60;99.90;;;;;;5074068;28;20036;-62
2023/08/16 11:42:40;;;;;;;3.15;2.50;;;30.60;99.90;;;;;;5075979;28;20119;-62
2023/08/16 11:45:24;;;;;;;5.13;2.95;;;30.70;99.90;;;;;;5076243;28;20036;-63
2023/08/16 11:47:56;;;;;;;3.17;2.33;;;30.70;99.90;;;;;;5055448;28;20424;-63
2023/08/16 11:50:28;;;;;;;2.95;2.35;;;30.80;99.90;;;;;;5074541;28;20045;-63
2023/08/16 11:53:01;;;;;;;2.70;2.50;;;30.80;99.90;;;;;;5056677;28;20044;-62
2023/08/16 11:55:33;;;;;;;3.08;2.10;;;30.90;99.90;;;;;;5075246;28;20120;-62
2023/08/16 11:58:09;;;;;;;2.58;2.38;;;30.90;99.90;;;;;;5073080;28;20052;-62
2023/08/16 12:00:42;;;;;;;2.67;2.47;;;31.00;99.90;;;;;;5074483;28;20404;-62
2023/08/16 12:03:17;;;;;;;5.32;2.60;;;31.00;99.90;;;;;;5073306;28;20038;-62
2023/08/16 12:05:49;;;;;;;5.18;3.20;;;31.00;99.90;;;;;;5071879;28;20412;-62
2023/08/16 12:08:21;;;;;;;2.35;2.08;;;31.10;99.90;;;;;;5075913;28;20036;-63
2023/08/16 12:10:54;;;;;;;2.58;2.38;;;31.10;99.90;;;;;;5070100;28;20439;-62
2023/08/16 12:13:25;;;;;;;3.28;2.10;;;31.20;99.90;;;;;;5074918;28;20049;-62
2023/08/16 12:15:57;;;;;;;2.70;2.30;;;31.20;99.90;;;;;;5074088;28;20103;-62
2023/08/16 12:18:29;;;;;;;2.97;2.50;;;31.20;99.90;;;;;;5060120;28;20032;-63
2023/08/16 12:21:02;;;;;;;4.27;2.93;;;31.30;99.90;;;;;;5057669;28;20282;-63
2023/08/16 12:23:34;;;;;;;4.75;2.70;;;31.40;99.90;;;;;;5073527;28;20036;-64
2023/08/16 12:26:06;;;;;;;4.35;2.17;;;31.50;99.90;;;;;;5057946;28;20424;-63
2023/08/16 12:28:38;;;;;;;2.70;2.37;;;31.60;99.90;;;;;;5074701;28;20043;-63
2023/08/16 12:31:10;;;;;;;5.50;2.90;;;31.60;99.90;;;;;;5071474;28;20040;-62
2023/08/16 12:33:43;;;;;;;3.35;2.55;;;31.70;99.90;;;;;;5058243;28;20094;-63
2023/08/16 12:36:15;;;;;;;3.35;2.47;;;31.60;99.80;;;;;;5072063;28;20937;-63
2023/08/16 12:38:47;;;;;;;4.63;2.57;;;31.70;99.90;;;;;;5056296;28;20478;-63
2023/08/16 12:41:18;;;;;;;6.90;3.40;;;31.70;99.90;;;;;;5059327;28;20036;-63
2023/08/16 12:43:53;;;;;;;8.00;2.75;;;31.80;99.90;;;;;;5053909;28;20044;-62
2023/08/16 12:46:25;;;;;;;5.72;2.70;;;31.80;99.80;;;;;;5053151;28;20033;-63
2023/08/16 12:48:56;;;;;;;3.73;2.80;;;31.90;98.60;;;;;;5055115;28;20044;-63
2023/08/16 12:51:28;;;;;;;2.97;2.70;;;31.90;99.20;;;;;;5070921;28;20119;-62
2023/08/16 12:54:00;;;;;;;4.83;2.50;;;31.90;99.30;;;;;;5070471;28;20051;-62
2023/08/16 12:56:32;;;;;;;5.30;4.47;;;32.00;98.50;;;;;;5054491;28;20291;-62
2023/08/16 12:59:04;;;;;;;3.17;2.90;;;32.00;99.00;;;;;;5071007;28;20520;-63
2023/08/16 13:01:35;;;;;;;3.83;2.50;;;32.10;98.70;;;;;;5070298;28;20509;-62
2023/08/16 13:04:07;;;;;;;4.33;3.63;;;32.10;99.00;;;;;;5065294;28;20039;-62
2023/08/16 13:06:35;;;;;;;5.15;3.45;;;32.20;97.60;;;;;;5065692;28;20059;-62
2023/08/16 13:09:07;;;;;;;3.53;3.22;;;32.20;97.20;;;;;;5067535;28;20049;-62